Nearby METAR Reports

 

KEDC - Austin Exec, Texas, USA
Distance from station: SSE 10mi, 17km
Updated: Wed, 23-Jan-2019 9:15am CST
Clear
Clear
 Wind from NNW
Wind: NNW 16 mph , 26 km/h
Temperature: 37°F , 3°C
Wind Chill: 28°F , -2°C
Dew Point: 19°F , -7°C
Humidity: 48%
Barometer: 30.23 inHg , 1023.7 hPa
Clouds: Clear
Visibility: 10 miles , 16 km
2019/01/23 15:15 KEDC 231515Z AUTO 34014KT 10SM CLR 03/M07 A3023 RMK AO2
KGTU - Georgetown, Texas, USA
Distance from station: NNW 11mi, 17km
Updated: Wed, 23-Jan-2019 8:56am CST
Partly cloudy
Partly cloudy
 Wind from NNW
Wind: NNW 17 mph , 28 km/h, Gust: 30 mph , 48 km/h
Temperature: 34°F , 1°C
Wind Chill: 23°F , -5°C
Dew Point: 18°F , -8°C
Humidity: 51%
Barometer: 30.22 inHg , 1023.4 hPa
Clouds: Partly cloudy
Visibility: 10 miles , 16 km
Cloud details: Partly cloudy 12000 ft
2019/01/23 14:56 KGTU 231456Z 33015G26KT 10SM SCT120 01/M08 A3022 RMK AO2 PK WND 32026/1449 SLP240 T00111078 51009
 
KATT - Austin/Mabry, Texas, USA
Distance from station: SSW 18mi, 30km
Updated: Wed, 23-Jan-2019 8:51am CST
Clear
Clear
 Wind from NNW
Wind: NNW 14 mph , 22 km/h, Gust: 23 mph , 37 km/h
Temperature: 36°F , 2°C
Wind Chill: 27°F , -3°C
Dew Point: 18°F , -8°C
Humidity: 48%
Barometer: 30.23 inHg , 1023.7 hPa
Clouds: Clear
Visibility: 10 miles , 16 km
2019/01/23 14:51 KATT 231451Z AUTO 33012G20KT 10SM CLR 02/M08 A3023 RMK AO2 SLP240 T00221078 53015
KRYW - Lago Vista, Texas, USA
Distance from station: W 22mi, 35km
Updated: Wed, 23-Jan-2019 9:35am CST
Clear
Clear
 Wind from NNW
Wind: NNW 15 mph , 24 km/h, Gust: 22 mph , 35 km/h
Temperature: 37°F , 3°C
Wind Chill: 28°F , -2°C
Dew Point: 21°F , -6°C
Humidity: 52%
Barometer: 30.21 inHg , 1023 hPa
Clouds: Clear
Visibility: 10 miles , 16 km
2019/01/23 15:35 KRYW 231535Z AUTO 33013G19KT 10SM CLR 03/M06 A3021 RMK AO2 T00261061
 
KAUS - Austin, Texas, USA
Distance from station: S 25mi, 41km
Updated: Wed, 23-Jan-2019 8:53am CST
Mostly cloudy
Mostly cloudy
 Wind from NNW
Wind: NNW 22 mph , 35 km/h, Gust: 29 mph , 46 km/h
Temperature: 39°F , 4°C
Wind Chill: 29°F , -2°C
Dew Point: 19°F , -7°C
Humidity: 45%
Barometer: 30.21 inHg , 1023 hPa
Clouds: Mostly cloudy
Visibility: 10 miles , 16 km
Cloud details: Few Clouds 12000 ft
Partly cloudy 20000 ft
Mostly cloudy 30000 ft
2019/01/23 14:53 KAUS 231453Z 33019G25KT 10SM FEW120 SCT200 BKN300 04/M07 A3021 RMK AO2 SLP233 T00391072 51019
KILE - Killeen Muni, Texas, USA
Distance from station: N 36mi, 58km
Updated: Wed, 23-Jan-2019 8:56am CST
Clear
Clear
 Wind from NW
Wind: NW 13 mph , 20 km/h, Gust: 22 mph , 35 km/h
Temperature: 32°F , 0°C
Wind Chill: 22°F , -6°C
Dew Point: 18°F , -8°C
Humidity: 55%
Barometer: 30.23 inHg , 1023.7 hPa
Clouds: Clear
Visibility: 10 miles , 16 km
2019/01/23 14:56 KILE 231456Z AUTO 32011G19KT 10SM CLR 00/M08 A3023 RMK AO2 SLPNO 6//// T00001078 53018 FZRANO
 
KGRK - Gray/Ft Hood, Texas, USA
Distance from station: NNW 38mi, 62km
Updated: Wed, 23-Jan-2019 8:58am CST
Clear
Clear
 Wind from NW
Wind: NW 16 mph , 26 km/h, Gust: 22 mph , 35 km/h
Temperature: 32°F , 0°C
Wind Chill: 21°F , -6°C
Dew Point: 18°F , -8°C
Humidity: 55%
Barometer: 30.20 inHg , 1022.7 hPa
Clouds: Clear
Visibility: 10 miles , 16 km
2019/01/23 14:58 KGRK 231458Z AUTO 32014G19KT 10SM CLR 00/M08 A3020 RMK AO2 SLP233 T10011082 50014
KBMQ - Burnet, Texas, USA
Distance from station: WNW 39mi, 64km
Updated: Wed, 23-Jan-2019 8:53am CST
Clear
Clear
 Wind from NW
Wind: NW 17 mph , 28 km/h, Gust: 25 mph , 41 km/h
Temperature: 34°F , 1°C
Wind Chill: 23°F , -5°C
Dew Point: 18°F , -8°C
Humidity: 51%
Barometer: 30.23 inHg , 1023.7 hPa
Clouds: Clear
Visibility: 10 miles , 16 km
2019/01/23 14:53 KBMQ 231453Z AUTO 32015G22KT 10SM CLR 01/M08 A3023 RMK AO2 SLP239 T00111078 51016
 
KHLR - Ft Hood/Killeen, Texas, USA
Distance from station: N 41mi, 66km
Updated: Wed, 23-Jan-2019 8:58am CST
Few Clouds
Few Clouds
 Wind from NW
Wind: NW 16 mph , 26 km/h
Temperature: 32°F , 0°C
Wind Chill: 21°F , -6°C
Dew Point: 18°F , -8°C
Humidity: 55%
Barometer: 30.17 inHg , 1021.7 hPa
Clouds: Few Clouds
Visibility: 10 miles , 16 km
Cloud details: Few Clouds 19000 ft
2019/01/23 14:58 KHLR 231458Z AUTO 32014KT 10SM FEW190 00/M08 A3017 RMK AO2 SLP220 T10021082 50017
KTPL - Temple/Miller, Texas, USA
Distance from station: NNE 42mi, 68km
Updated: Wed, 23-Jan-2019 8:51am CST
Clear
Clear
 Wind from NW
Wind: NW 17 mph , 28 km/h, Gust: 28 mph , 44 km/h
Temperature: 34°F , 1°C
Wind Chill: 23°F , -5°C
Dew Point: 18°F , -8°C
Humidity: 51%
Barometer: 30.21 inHg , 1023 hPa
Clouds: Clear
Visibility: 10 miles , 16 km
2019/01/23 14:51 KTPL 231451Z AUTO 32015G24KT 10SM CLR 01/M08 A3021 RMK AO2 SLP248 T00061083 51020 FZRANO
 
KT35 - Cameron, Texas, USA
Distance from station: ENE 45mi, 72km
Updated: Wed, 23-Jan-2019 9:35am CST
Clear
Clear
 Wind from NW
Wind: NW 24 mph , 39 km/h, Gust: 28 mph , 44 km/h
Temperature: 36°F , 2°C
Wind Chill: 24°F , -4°C
Dew Point: 21°F , -6°C
Humidity: 56%
Barometer: 30.22 inHg , 1023.4 hPa
Clouds: Clear
Visibility: 10 miles , 16 km
2019/01/23 15:35 KT35 231535Z AUTO 32021G24KT 10SM CLR 02/M06 A3022 RMK AO2 T00151063
KDZB - Horseshoe Bay, Texas, USA
Distance from station: W 45mi, 73km
Updated: Wed, 23-Jan-2019 9:35am CST
Clear
Clear
 Wind from NNW
Wind: NNW 15 mph , 24 km/h, Gust: 22 mph , 35 km/h
Temperature: 36°F , 2°C
Wind Chill: 27°F , -3°C
Dew Point: 21°F , -6°C
Humidity: 56%
Barometer: 30.25 inHg , 1024.4 hPa
Clouds: Clear
Visibility: 10 miles , 16 km
2019/01/23 15:35 KDZB 231535Z AUTO 34013G19KT 10SM CLR 02/M06 A3025 RMK AO2 T00211062
 
KGYB - Giddings-Lee, Texas, USA
Distance from station: SE 45mi, 73km
Updated: Wed, 23-Jan-2019 9:35am CST
Clear
Clear
 Wind from NNW
Wind: NNW 13 mph , 20 km/h, Gust: 26 mph , 43 km/h
Temperature: 36°F , 2°C
Wind Chill: 27°F , -3°C
Dew Point: 21°F , -6°C
Humidity: 56%
Barometer: 30.21 inHg , 1023 hPa
Clouds: Clear
Visibility: 10 miles , 16 km
2019/01/23 15:35 KGYB 231535Z AUTO 33011G23KT 300V360 10SM CLR 02/M06 A3021 RMK AO2 T00201063
KHYI - San Marcos, Texas, USA
Distance from station: SSW 48mi, 78km
Updated: Wed, 23-Jan-2019 8:56am CST
Clear
Clear
 Wind from NNW
Wind: NNW 18 mph , 30 km/h, Gust: 30 mph , 48 km/h
Temperature: 37°F , 3°C
Wind Chill: 27°F , -3°C
Dew Point: 21°F , -6°C
Humidity: 52%
Barometer: 30.23 inHg , 1023.7 hPa
Clouds: Clear
Visibility: 10 miles , 16 km
2019/01/23 14:56 KHYI 231456Z 33016G26KT 10SM CLR 03/M06 A3023 RMK AO2 PK WND 34026/1448 SLP236 T00331056 53024
 
KLZZ - Lampasas, Texas, USA
Distance from station: NW 52mi, 84km
Updated: Wed, 23-Jan-2019 9:35am CST
Clear
Clear
 Wind from NNW
Wind: NNW 17 mph , 28 km/h, Gust: 24 mph , 39 km/h
Temperature: 36°F , 2°C
Wind Chill: 26°F , -3°C
Dew Point: 19°F , -7°C
Humidity: 52%
Barometer: 30.22 inHg , 1023.4 hPa
Clouds: Clear
Visibility: 10 miles , 16 km
2019/01/23 15:35 KLZZ 231535Z AUTO 33015G21KT 10SM CLR 02/M07 A3022 RMK AO2 T00181074
KRWV - Caldwell, Texas, USA
Distance from station: E 54mi, 87km
Updated: Wed, 23-Jan-2019 9:35am CST
Clear
Clear
 Wind from NNW
Wind: NNW 17 mph , 28 km/h, Gust: 25 mph , 41 km/h
Temperature: 34°F , 1°C
Wind Chill: 23°F , -5°C
Dew Point: 19°F , -7°C
Humidity: 56%
Barometer: 30.21 inHg , 1023 hPa
Clouds: Clear
Visibility: 10 miles , 16 km
2019/01/23 15:35 KRWV 231535Z AUTO 33015G22KT 10SM CLR 01/M07 A3021 RMK AO2 T00101067
 
K3T5 - La Grange, Texas, USA
Distance from station: SE 59mi, 95km
Updated: Wed, 23-Jan-2019 9:35am CST
Clear
Clear
 Wind from N
Wind: N 15 mph , 24 km/h, Gust: 22 mph , 35 km/h
Temperature: 37°F , 3°C
Wind Chill: 28°F , -2°C
Dew Point: 23°F , -5°C
Humidity: 56%
Barometer: 30.19 inHg , 1022.4 hPa
Clouds: Clear
Visibility: 10 miles , 16 km
2019/01/23 15:35 K3T5 231535Z AUTO 35013G19KT 10SM CLR 03/M05 A3019 RMK AO2 T00331049
KGOP - Gatesville, Texas, USA
Distance from station: N 61mi, 99km
Updated: Wed, 23-Jan-2019 9:35am CST
Clear
Clear
 Wind from NW
Wind: NW 15 mph , 24 km/h, Gust: 23 mph , 37 km/h
Temperature: 34°F , 1°C
Wind Chill: 24°F , -4°C
Dew Point: 18°F , -8°C
Humidity: 51%
Barometer: 30.24 inHg , 1024 hPa
Clouds: Clear
Visibility: 10 miles , 16 km
2019/01/23 15:35 KGOP 231535Z AUTO 32013G20KT 10SM CLR 01/M08 A3024 RMK AO2
 
KLHB - Hearne Muni, Texas, USA
Distance from station: ENE 63mi, 101km
Updated: Wed, 23-Jan-2019 9:35am CST
Clear
Clear
 Wind from WNW
Wind: WNW 22 mph , 35 km/h, Gust: 28 mph , 44 km/h
Temperature: 32°F , 0°C
Wind Chill: 19°F , -7°C
Dew Point: 23°F , -5°C
Humidity: 69%
Barometer: 30.21 inHg , 1023 hPa
Clouds: Clear
Visibility: 10 miles , 16 km
2019/01/23 15:35 KLHB 231535Z AUTO 30019G24KT 10SM CLR 00/M05 A3021 RMK AO2 T00021052
KBAZ - New Braunfels, Texas, USA
Distance from station: SSW 63mi, 102km
Updated: Wed, 23-Jan-2019 8:51am CST
Few Clouds
Few Clouds
 Wind from N
Wind: N 22 mph , 35 km/h, Gust: 29 mph , 46 km/h
Temperature: 39°F , 4°C
Wind Chill: 29°F , -2°C
Dew Point: 19°F , -7°C
Humidity: 45%
Barometer: 30.21 inHg , 1023 hPa
Clouds: Few Clouds
Visibility: 10 miles , 16 km
Cloud details: Few Clouds 12000 ft
2019/01/23 14:51 KBAZ 231451Z 35019G25KT 10SM FEW120 04/M07 A3021 RMK AO2 SLP230 T00391067 51025